createdAt,value
2022-11-22T00:03:23.706Z,2.10
2022-11-22T00:08:23.653Z,2.70
2022-11-22T00:13:23.588Z,2.90
2022-11-22T00:18:23.517Z,2.30
2022-11-22T00:23:23.451Z,2.80
2022-11-22T00:28:23.395Z,1.90
2022-11-22T00:33:23.369Z,1.70
2022-11-22T00:38:23.297Z,1.80
2022-11-22T00:43:23.260Z,2.40
2022-11-22T00:48:23.177Z,1.60
2022-11-22T00:53:23.095Z,3.10
2022-11-22T00:58:23.036Z,2.90
2022-11-22T01:03:22.966Z,1.80
2022-11-22T01:08:22.954Z,2.30
2022-11-22T01:13:22.909Z,1.70
2022-11-22T01:18:22.820Z,1.70
2022-11-22T01:23:22.842Z,2.10
2022-11-22T01:28:22.693Z,2.00
2022-11-22T01:33:22.695Z,5.60
2022-11-22T01:38:22.575Z,2.10
2022-11-22T01:43:22.492Z,2.00
2022-11-22T01:48:22.453Z,1.70
2022-11-22T01:53:22.373Z,2.40
2022-11-22T01:58:22.394Z,1.60
2022-11-22T02:03:22.250Z,2.80
2022-11-22T02:08:22.205Z,2.80
2022-11-22T02:13:22.130Z,2.90
2022-11-22T02:18:22.091Z,2.20
2022-11-22T02:23:22.021Z,5.50
2022-11-22T02:28:21.972Z,3.40
2022-11-22T02:33:21.876Z,3.80
2022-11-22T02:38:21.829Z,3.00
2022-11-22T02:43:21.753Z,3.20
2022-11-22T02:48:21.695Z,4.00
2022-11-22T02:53:21.634Z,3.40
2022-11-22T02:58:21.570Z,3.00
2022-11-22T03:03:21.555Z,2.50
2022-11-22T03:08:21.474Z,3.00
2022-11-22T03:13:21.421Z,1.60
2022-11-22T03:18:21.362Z,2.40
2022-11-22T03:23:21.271Z,2.00
2022-11-22T03:28:21.210Z,2.00
2022-11-22T03:33:21.140Z,2.70
2022-11-22T03:38:21.082Z,2.70
2022-11-22T03:43:21.008Z,2.80
2022-11-22T03:48:20.983Z,3.30
2022-11-22T03:53:20.938Z,3.30
2022-11-22T03:58:20.864Z,3.10
2022-11-22T04:03:20.798Z,3.80
2022-11-22T04:08:20.742Z,4.30
2022-11-22T04:13:20.641Z,2.80
2022-11-22T04:18:20.600Z,4.10
2022-11-22T04:23:20.524Z,4.20
2022-11-22T04:28:20.527Z,3.30
2022-11-22T04:33:20.417Z,5.50
2022-11-22T04:38:20.368Z,4.80
2022-11-22T04:43:20.311Z,3.30
2022-11-22T04:48:20.235Z,4.70
2022-11-22T04:53:20.185Z,7.80
2022-11-22T04:58:20.116Z,5.90
2022-11-22T05:03:20.036Z,4.60
2022-11-22T05:08:19.986Z,3.90
2022-11-22T05:13:19.916Z,4.80
2022-11-22T05:18:19.857Z,3.30
2022-11-22T05:23:19.771Z,3.20
2022-11-22T05:28:19.723Z,4.40
2022-11-22T05:33:19.658Z,4.80
2022-11-22T05:38:19.604Z,5.40
2022-11-22T05:43:19.545Z,5.70
2022-11-22T05:48:19.498Z,6.30
2022-11-22T05:53:19.416Z,4.20
2022-11-22T05:58:19.377Z,3.70
2022-11-22T06:03:19.300Z,3.80
2022-11-22T06:08:19.232Z,4.00
2022-11-22T06:13:19.166Z,4.30
2022-11-22T06:18:19.124Z,4.30
2022-11-22T06:23:19.059Z,4.40
2022-11-22T06:28:18.997Z,4.60
2022-11-22T06:33:18.932Z,3.90
2022-11-22T06:38:18.875Z,4.10
2022-11-22T06:43:18.814Z,3.10
2022-11-22T06:48:18.768Z,5.00
2022-11-22T06:53:45.277Z,5.10
2022-11-22T06:58:19.632Z,5.50
2022-11-22T07:03:18.603Z,3.30
2022-11-22T07:08:18.513Z,4.30
2022-11-22T07:13:18.448Z,4.70
2022-11-22T07:18:18.417Z,4.70
2022-11-22T07:23:18.348Z,3.60
2022-11-22T07:28:18.294Z,4.70
2022-11-22T07:33:18.203Z,3.70
2022-11-22T07:38:18.157Z,4.60
2022-11-22T07:43:18.099Z,5.10
2022-11-22T07:48:18.053Z,3.90
2022-11-22T07:53:18.025Z,5.60
2022-11-22T07:58:18.713Z,4.50
2022-11-22T08:03:19.158Z,5.30
2022-11-22T08:08:17.812Z,5.70
2022-11-22T08:13:17.751Z,5.10
2022-11-22T08:18:17.706Z,4.80
2022-11-22T08:23:17.612Z,8.30
2022-11-22T08:28:17.614Z,4.80
2022-11-22T08:33:17.522Z,5.00
2022-11-22T08:38:17.813Z,4.80
2022-11-22T08:43:17.371Z,4.50
2022-11-22T08:48:22.068Z,5.10
2022-11-22T08:53:18.250Z,4.00
2022-11-22T08:58:17.360Z,6.60
2022-11-22T09:03:17.123Z,4.30
2022-11-22T09:08:24.275Z,7.90
2022-11-22T09:13:18.007Z,5.80
2022-11-22T09:18:16.968Z,5.70
2022-11-22T09:23:16.889Z,6.50
2022-11-22T09:28:16.831Z,6.10
2022-11-22T09:33:16.777Z,5.60
2022-11-22T09:38:16.730Z,5.70
2022-11-22T09:43:16.729Z,4.40
2022-11-22T09:48:16.625Z,4.90
2022-11-22T09:53:16.576Z,4.90
2022-11-22T09:58:17.349Z,5.00
2022-11-22T10:03:16.430Z,5.50
2022-11-22T10:08:16.351Z,8.30
2022-11-22T10:13:16.279Z,5.60
2022-11-22T10:18:16.236Z,8.00
2022-11-22T10:23:16.177Z,6.70
2022-11-22T10:28:16.118Z,5.80
2022-11-22T10:33:16.073Z,6.80
2022-11-22T10:38:16.018Z,7.00
2022-11-22T10:43:15.937Z,4.80
2022-11-22T10:48:15.892Z,3.70
2022-11-22T10:53:15.818Z,4.60
2022-11-22T10:58:15.737Z,4.90
2022-11-22T11:03:15.677Z,4.00
2022-11-22T11:08:39.591Z,4.90
2022-11-22T11:13:16.583Z,5.00
2022-11-22T11:18:15.507Z,5.60
2022-11-22T11:23:16.256Z,5.20
2022-11-22T11:28:15.379Z,4.40
2022-11-22T11:33:15.325Z,6.20
2022-11-22T11:38:15.289Z,5.20
2022-11-22T11:43:15.239Z,5.90
2022-11-22T11:48:15.151Z,4.40
2022-11-22T11:53:15.107Z,5.50
2022-11-22T11:58:17.670Z,5.20
2022-11-22T12:03:15.054Z,4.30
2022-11-22T12:08:14.940Z,4.10
2022-11-22T12:13:14.900Z,4.60
2022-11-22T12:18:14.848Z,4.40
2022-11-22T12:23:14.797Z,6.50
2022-11-22T12:28:14.729Z,4.90
2022-11-22T12:33:14.667Z,4.50
2022-11-22T12:38:14.610Z,8.10
2022-11-22T12:43:14.548Z,4.10
2022-11-22T12:48:14.499Z,5.50
2022-11-22T12:53:14.430Z,4.70
2022-11-22T12:58:14.386Z,6.70
2022-11-22T13:03:14.358Z,4.30
2022-11-22T13:08:14.327Z,5.60
2022-11-22T13:13:14.244Z,5.90
2022-11-22T13:18:14.196Z,6.30
2022-11-22T13:23:14.132Z,6.80
2022-11-22T13:28:14.071Z,5.30
2022-11-22T13:33:14.001Z,5.50
2022-11-22T13:38:13.936Z,7.80
2022-11-22T13:43:17.932Z,6.80
2022-11-22T13:48:14.829Z,7.00
2022-11-22T13:53:13.747Z,5.50
2022-11-22T13:58:13.754Z,6.00
2022-11-22T14:03:13.667Z,4.80
2022-11-22T14:08:13.598Z,7.50
2022-11-22T14:13:13.539Z,10.10
2022-11-22T14:18:13.497Z,6.60
2022-11-22T14:23:13.447Z,6.10
2022-11-22T14:28:13.434Z,4.90
2022-11-22T14:33:13.310Z,5.30
2022-11-22T14:38:13.251Z,4.00
2022-11-22T14:43:13.231Z,4.90
2022-11-22T14:48:13.109Z,6.80
2022-11-22T14:53:13.039Z,6.10
2022-11-22T14:58:12.987Z,5.90
2022-11-22T15:03:12.919Z,4.70
2022-11-22T15:09:20.506Z,4.60
2022-11-22T15:13:13.772Z,6.20
2022-11-22T15:58:13.226Z,6.00
2022-11-22T16:03:12.138Z,4.40
2022-11-22T16:08:12.117Z,4.80
2022-11-22T16:13:12.036Z,6.30
2022-11-22T16:18:12.009Z,7.20
2022-11-22T16:23:11.964Z,9.40
2022-11-22T16:28:11.907Z,14.30
2022-11-22T16:33:11.859Z,5.30
2022-11-22T16:38:11.776Z,6.60
2022-11-22T16:43:11.720Z,4.90
2022-11-22T16:48:30.759Z,5.30
2022-11-22T16:53:12.596Z,5.30
2022-11-22T16:58:11.557Z,3.40
2022-11-22T17:03:11.486Z,6.00
2022-11-22T17:08:11.458Z,7.10
2022-11-22T17:13:11.369Z,6.10
2022-11-22T17:18:11.324Z,8.10
2022-11-22T17:23:11.295Z,7.30
2022-11-22T17:28:11.238Z,6.50
2022-11-22T17:33:11.179Z,5.50
2022-11-22T17:38:11.167Z,5.60
2022-11-22T17:43:11.078Z,6.70
2022-11-22T17:48:11.016Z,8.10
2022-11-22T17:53:10.967Z,6.70
2022-11-22T17:58:10.946Z,5.40
2022-11-22T18:03:10.905Z,6.40
2022-11-22T18:08:10.888Z,5.00
2022-11-22T18:13:21.346Z,7.30
2022-11-22T18:18:33.219Z,5.60
2022-11-22T18:23:11.675Z,6.10
2022-11-22T18:28:10.623Z,5.10
2022-11-22T18:33:10.531Z,7.50
2022-11-22T18:38:10.486Z,4.30
2022-11-22T18:43:10.445Z,6.30
2022-11-22T18:48:10.399Z,6.60
2022-11-22T18:53:10.328Z,5.40
2022-11-22T18:58:10.273Z,9.80
2022-11-22T19:03:10.209Z,6.50
2022-11-22T19:08:10.153Z,6.70
2022-11-22T19:13:10.106Z,8.00
2022-11-22T19:18:10.061Z,6.40
2022-11-22T19:23:10.009Z,7.00
2022-11-22T19:28:09.916Z,7.70
2022-11-22T19:33:09.871Z,4.10
2022-11-22T19:38:09.814Z,6.10
2022-11-22T19:43:15.016Z,7.90
2022-11-22T19:48:10.713Z,10.10
2022-11-22T19:53:09.646Z,7.40
2022-11-22T19:58:09.586Z,5.70
2022-11-22T20:03:09.527Z,6.80
2022-11-22T20:08:09.486Z,8.90
2022-11-22T20:13:10.711Z,7.60
2022-11-22T20:18:09.421Z,7.40
2022-11-22T20:23:09.369Z,5.80
2022-11-22T20:28:09.305Z,5.70
2022-11-22T20:33:09.208Z,6.60
2022-11-22T20:38:09.138Z,6.10
2022-11-22T20:43:09.090Z,8.50
2022-11-22T20:48:09.027Z,7.20
2022-11-22T20:53:08.977Z,9.30
2022-11-22T20:58:08.921Z,8.40
2022-11-22T21:03:08.862Z,7.80
2022-11-22T21:08:08.807Z,11.10
2022-11-22T21:13:08.816Z,5.20
2022-11-22T21:18:24.661Z,5.90
2022-11-22T21:23:09.628Z,5.70
2022-11-22T21:28:08.581Z,7.60
2022-11-22T21:33:08.529Z,5.90
2022-11-22T21:38:08.488Z,6.80
2022-11-22T21:43:08.455Z,6.80
2022-11-22T21:48:08.374Z,7.70
2022-11-22T21:53:08.324Z,4.60
2022-11-22T21:58:08.301Z,6.50
2022-11-22T22:03:08.179Z,4.90
2022-11-22T22:08:08.188Z,6.10
2022-11-22T22:13:08.096Z,6.60
2022-11-22T22:18:08.038Z,5.10
2022-11-22T22:23:07.988Z,5.40
2022-11-22T22:28:07.929Z,6.10
2022-11-22T22:33:07.886Z,5.10
2022-11-22T22:38:07.817Z,5.30
2022-11-22T22:43:07.757Z,6.60
2022-11-22T22:48:07.704Z,4.90
2022-11-22T22:53:07.657Z,4.20
2022-11-22T22:58:10.473Z,4.80
2022-11-22T23:03:07.573Z,5.10
2022-11-22T23:08:07.485Z,4.30
2022-11-22T23:13:07.433Z,4.20
2022-11-22T23:18:07.373Z,4.40
2022-11-22T23:23:07.302Z,5.70
2022-11-22T23:28:07.283Z,9.10
2022-11-22T23:33:07.197Z,5.40
2022-11-22T23:38:07.123Z,5.40
2022-11-22T23:43:07.086Z,5.00
2022-11-22T23:48:07.007Z,5.60
2022-11-22T23:53:06.953Z,6.60
2022-11-22T23:58:06.926Z,5.90
